createdAt,value
2018-04-24T00:02:27.498Z,64.20
2018-04-24T00:05:22.085Z,64.20
2018-04-24T00:07:53.170Z,64.10
2018-04-24T00:10:30.806Z,63.10
2018-04-24T00:20:23.974Z,64.90
2018-04-24T00:23:19.518Z,64.90
2018-04-24T00:32:08.352Z,63.50
2018-04-24T00:35:16.945Z,64.20
2018-04-24T00:38:14.044Z,64.40
2018-04-24T00:46:51.600Z,63.90
2018-04-24T00:49:51.125Z,63.90
2018-04-24T00:52:20.586Z,64.90
2018-04-24T01:54:37.169Z,66.60
2018-04-24T03:07:39.693Z,70.50
2018-04-24T03:10:09.385Z,70.30
2018-04-24T03:12:39.156Z,70.10
2018-04-24T03:15:10.175Z,68.20
2018-04-24T03:17:39.827Z,68.20
2018-04-24T03:20:10.207Z,68.60
2018-04-24T03:22:40.243Z,68.70
2018-04-24T03:25:11.140Z,68.40
2018-04-24T03:27:40.778Z,68.40
2018-04-24T03:30:11.034Z,68.40
2018-04-24T03:32:41.574Z,68.20
2018-04-24T03:35:11.276Z,68.20
2018-04-24T03:37:41.054Z,68.00
2018-04-24T03:40:10.833Z,68.30
2018-04-24T03:42:40.999Z,68.80
2018-04-24T03:45:11.453Z,68.70
2018-04-24T03:47:41.074Z,68.70
2018-04-24T03:50:11.067Z,69.00
2018-04-24T03:52:40.676Z,68.80
2018-04-24T03:55:10.668Z,69.20
2018-04-24T03:57:41.337Z,68.70
2018-04-24T04:00:11.095Z,70.10
2018-04-24T04:02:40.712Z,69.90
2018-04-24T04:05:10.792Z,70.00
2018-04-24T04:07:40.287Z,69.60
2018-04-24T04:10:18.258Z,69.20
2018-04-24T04:12:48.248Z,70.00
2018-04-24T04:15:36.058Z,70.00
2018-04-24T04:19:13.754Z,70.00
2018-04-24T04:23:59.332Z,70.00
2018-04-24T04:26:39.090Z,70.60
2018-04-24T04:29:09.393Z,70.00
2018-04-24T04:31:38.901Z,70.20
2018-04-24T04:34:08.378Z,70.50
2018-04-24T04:36:44.251Z,70.00
2018-04-24T04:39:14.165Z,70.00
2018-04-24T04:41:44.471Z,69.50
2018-04-24T04:44:14.766Z,69.00
2018-04-24T04:46:45.200Z,68.90
2018-04-24T04:49:14.792Z,68.90
2018-04-24T04:51:45.071Z,68.50
2018-04-24T04:54:14.761Z,68.40
2018-04-24T04:56:44.367Z,68.10
2018-04-24T04:59:14.960Z,66.60
2018-04-24T05:01:44.704Z,66.50
2018-04-24T05:04:14.338Z,66.80
2018-04-24T05:06:45.292Z,67.40
2018-04-24T05:09:14.960Z,67.40
2018-04-24T05:11:45.500Z,66.80
2018-04-24T05:14:15.540Z,66.80
2018-04-24T05:16:44.983Z,65.50
2018-04-24T05:19:14.831Z,65.70
2018-04-24T05:21:46.245Z,64.70
2018-04-24T05:24:15.861Z,64.80
2018-04-24T05:26:45.837Z,65.80
2018-04-24T05:29:16.047Z,66.80
2018-04-24T05:31:45.553Z,66.10
2018-04-24T05:34:15.373Z,65.50
2018-04-24T05:36:45.893Z,65.00
2018-04-24T05:39:15.569Z,65.00
2018-04-24T05:41:46.101Z,64.10
2018-04-24T05:44:17.062Z,65.00
2018-04-24T05:46:47.564Z,63.70
2018-04-24T05:49:17.986Z,64.00
2018-04-24T05:51:48.714Z,64.10
2018-04-24T05:54:19.027Z,64.20
2018-04-24T05:56:48.589Z,64.30
2018-04-24T05:59:18.820Z,64.00
2018-04-24T06:01:48.464Z,64.30
2018-04-24T06:04:18.015Z,64.40
2018-04-24T06:06:48.155Z,63.90
2018-04-24T06:09:18.287Z,64.40
2018-04-24T06:11:48.552Z,63.10
2018-04-24T06:14:19.112Z,64.60
2018-04-24T06:16:49.251Z,63.40
2018-04-24T06:19:19.377Z,64.30
2018-04-24T06:21:50.077Z,64.30
2018-04-24T06:24:22.389Z,63.90
2018-04-24T06:26:51.963Z,63.90
2018-04-24T06:29:22.181Z,63.70
2018-04-24T06:31:51.927Z,63.30
2018-04-24T06:34:21.553Z,64.00
2018-04-24T06:36:51.637Z,63.40
2018-04-24T06:39:25.233Z,63.10
2018-04-24T06:41:55.397Z,60.40
2018-04-24T06:44:25.807Z,62.50
2018-04-24T06:46:55.625Z,62.50
2018-04-24T06:49:31.215Z,61.30
2018-04-24T06:52:01.149Z,61.20
2018-04-24T06:54:30.911Z,60.00
2018-04-24T06:57:02.691Z,59.70
2018-04-24T06:59:35.274Z,60.70
2018-04-24T07:02:05.834Z,59.80
2018-04-24T07:04:36.539Z,60.00
2018-04-24T07:07:07.639Z,60.70
2018-04-24T07:09:38.555Z,59.30
2018-04-24T07:12:13.747Z,60.10
2018-04-24T07:24:46.921Z,58.40
2018-04-24T07:27:17.573Z,58.20
2018-04-24T07:29:47.816Z,59.40
2018-04-24T07:32:18.143Z,58.20
2018-04-24T07:34:47.741Z,58.00
2018-04-24T07:37:19.175Z,56.70
2018-04-24T07:39:49.211Z,56.70
2018-04-24T07:42:18.988Z,57.40
2018-04-24T07:44:52.653Z,56.80
2018-04-24T07:47:23.256Z,56.00
2018-04-24T07:49:53.365Z,56.00
2018-04-24T07:52:24.859Z,58.30
2018-04-24T07:54:54.984Z,58.40
2018-04-24T07:57:27.450Z,58.30
2018-04-24T07:59:58.256Z,58.30
2018-04-24T08:02:27.983Z,57.60
2018-04-24T08:05:01.148Z,54.40
2018-04-24T08:07:38.656Z,55.60
2018-04-24T08:10:09.813Z,53.60
2018-04-24T08:12:40.670Z,54.00
2018-04-24T08:15:10.867Z,54.10
2018-04-24T08:17:41.507Z,55.30
2018-04-24T08:20:11.313Z,55.30
2018-04-24T08:22:42.239Z,54.00
2018-04-24T08:25:13.186Z,54.00
2018-04-24T08:27:43.792Z,52.20
2018-04-24T08:30:14.635Z,52.20
2018-04-24T08:32:47.248Z,51.00
2018-04-24T08:35:18.169Z,51.00
2018-04-24T08:37:49.791Z,52.70
2018-04-24T08:40:26.819Z,52.70
2018-04-24T08:42:57.451Z,51.20
2018-04-24T08:45:27.753Z,51.20
2018-04-24T08:47:58.103Z,51.10
2018-04-24T08:50:30.791Z,51.30
2018-04-24T08:56:23.048Z,51.40
2018-04-24T08:59:02.069Z,52.90
2018-04-24T09:01:48.303Z,50.60
2018-04-24T09:04:18.398Z,51.90
2018-04-24T09:06:55.118Z,51.40
2018-04-24T09:09:25.811Z,50.90
2018-04-24T09:11:56.813Z,51.20
2018-04-24T09:14:33.982Z,51.70
2018-04-24T09:17:12.227Z,51.70
2018-04-24T09:19:42.953Z,52.10
2018-04-24T09:22:15.186Z,51.60
2018-04-24T09:24:45.112Z,52.20
2018-04-24T09:27:19.623Z,52.70
2018-04-24T09:29:53.876Z,52.70
2018-04-24T09:32:24.275Z,52.20
2018-04-24T09:34:54.607Z,52.10
2018-04-24T09:37:27.248Z,52.10
2018-04-24T09:40:02.976Z,52.10
2018-04-24T09:43:15.054Z,52.30
2018-04-24T09:45:45.903Z,52.70
2018-04-24T09:48:16.801Z,52.70
2018-04-24T09:50:47.271Z,52.00
2018-04-24T09:53:18.598Z,51.90
2018-04-24T09:55:50.342Z,53.20
2018-04-24T09:58:29.520Z,53.20
2018-04-24T10:01:00.509Z,51.90
2018-04-24T10:03:32.465Z,52.00
2018-04-24T10:06:06.950Z,52.10
2018-04-24T10:08:39.392Z,52.70
2018-04-24T10:11:11.660Z,51.40
2018-04-24T10:13:44.050Z,51.40
2018-04-24T10:16:16.471Z,51.60
2018-04-24T10:18:53.715Z,52.10
2018-04-24T10:21:26.735Z,52.10
2018-04-24T10:23:58.853Z,53.60
2018-04-24T10:26:30.346Z,52.60
2018-04-24T10:29:19.057Z,53.90
2018-04-24T10:31:51.349Z,52.70
2018-04-24T10:34:26.891Z,52.50
2018-04-24T10:37:09.760Z,51.60
2018-04-24T10:45:56.097Z,51.50
2018-04-24T10:48:28.938Z,51.60
2018-04-24T10:51:01.905Z,51.90
2018-04-24T10:53:36.179Z,53.00
2018-04-24T10:56:08.771Z,53.00
2018-04-24T10:58:43.075Z,52.10
2018-04-24T11:01:39.208Z,52.80
2018-04-24T11:04:16.462Z,52.40
2018-04-24T11:06:48.419Z,53.20
2018-04-24T11:09:20.820Z,52.50
2018-04-24T11:11:53.191Z,52.10
2018-04-24T11:34:36.635Z,52.10
2018-04-24T11:44:23.080Z,52.00
2018-04-24T11:47:20.281Z,53.30
2018-04-24T11:50:35.602Z,53.10
2018-04-24T12:39:54.991Z,51.70
2018-04-24T12:42:25.303Z,51.00
2018-04-24T13:08:11.846Z,54.60
2018-04-24T13:11:23.146Z,55.20
2018-04-24T13:27:47.516Z,55.70
2018-04-24T13:47:42.542Z,53.30
2018-04-24T14:26:21.918Z,59.10
2018-04-24T14:39:08.872Z,60.50
2018-04-24T14:51:26.275Z,59.70
2018-04-24T15:04:00.073Z,60.10
2018-04-24T15:20:02.869Z,61.20
2018-04-24T15:26:06.930Z,62.40
2018-04-24T15:28:49.589Z,61.90
2018-04-24T15:41:21.194Z,60.90
2018-04-24T15:47:25.361Z,60.90
2018-04-24T16:06:59.493Z,59.50
2018-04-24T16:09:57.298Z,59.00
2018-04-24T16:16:28.243Z,57.90
2018-04-24T16:19:24.249Z,57.90
2018-04-24T16:22:01.715Z,58.90
2018-04-24T16:41:20.004Z,58.80
2018-04-24T16:59:47.575Z,59.70
2018-04-24T17:10:46.879Z,60.10
2018-04-24T17:17:04.123Z,60.00
2018-04-24T17:30:06.836Z,61.00
2018-04-24T17:42:47.258Z,61.60
2018-04-24T17:49:00.370Z,61.40
2018-04-24T17:58:16.276Z,61.50
2018-04-24T18:08:08.794Z,61.60
2018-04-24T18:11:16.902Z,61.50
2018-04-24T18:14:26.325Z,61.50
2018-04-24T18:20:32.822Z,61.60
2018-04-24T18:32:26.740Z,63.30
2018-04-24T18:35:09.304Z,61.80
2018-04-24T18:51:33.114Z,62.30
2018-04-24T19:04:22.231Z,63.90
2018-04-24T19:17:15.340Z,64.30
2018-04-24T19:36:48.478Z,66.30
2018-04-24T19:53:21.166Z,66.30
2018-04-24T19:59:28.305Z,66.70
2018-04-24T20:05:32.973Z,67.20
2018-04-24T20:12:08.392Z,68.10
2018-04-24T20:31:44.300Z,67.40
2018-04-24T20:38:09.100Z,68.60
2018-04-24T20:44:53.371Z,68.50
2018-04-24T20:51:16.718Z,68.90
2018-04-24T20:57:31.995Z,68.90
2018-04-24T21:07:04.503Z,69.20
2018-04-24T21:12:58.861Z,68.90
2018-04-24T21:29:08.050Z,69.70
2018-04-24T21:31:37.706Z,69.80
2018-04-24T21:40:43.622Z,65.40
2018-04-24T21:43:57.994Z,65.40
2018-04-24T21:46:56.912Z,66.70
2018-04-24T21:55:59.976Z,64.50
2018-04-24T22:08:26.057Z,63.00
2018-04-24T22:27:22.294Z,61.50
2018-04-24T22:33:52.049Z,60.50
2018-04-24T22:43:32.372Z,60.60
2018-04-24T22:50:03.047Z,60.50
2018-04-24T23:09:20.636Z,61.70
2018-04-24T23:32:01.145Z,61.80
2018-04-24T23:35:10.578Z,62.40
